Historyczne dane pomiarowe

Dodano dane terminowe – wersja testowa.

Dane z okresu 1951-2019

Wersja bazy: 1.34 [2019-03-16, lista zmian], aktualizacja planowana na 2019-04-15

Dane meteo z obszaru Polski uzyskane na podstawie danych udostępnionych przez Instytut Meteorologii i Gospodarki Wodnej – Państwowy Instytut Badawczy.

 

Wybierz Datę:    

       

TemperaturaWilgotnośćWiatrCiśnienieOpadyŚniegCzas trwania zjawisk
 Stacja t tx tn tng RH VA  wxwx mslp ppp RRR   cm mm wxwxwxwxwxwxwx
1961-03-18 12.6 19.6 2.8- 61.5- 3.3 4.0---- 6.1------------
1961-03-19 4.5 12.9 2.4- 81.3- 7.3 3.7---- 0.6------------
1961-03-20 1.3 6.1 -2.8- 76.8- 2.0 1.3---- 0.0------------
1961-03-21 3.3 7.0 0.6- 74.8- 7.0 5.3---- 0.9------------
1961-03-22 0.1 4.4 -1.6- 84.0- 5.3 1.7---- 1.3------------
1961-03-23 3.8 5.5 -1.5- 86.8- 8.0 2.7---- 0.9-- 1---------
1961-03-24 7.3 9.9 4.7- 72.8- 6.7 2.3---- 0.0------------
1961-03-25 7.6 10.6 6.0- 80.5- 7.7 2.0---- 0.2------------
1961-03-26 8.1 11.9 1.6- 67.8- 6.0 2.7---- 0.0------------
1961-03-27 5.6 11.1 2.8- 62.8- 6.7 5.7---- 1.9------------
1961-03-28 1.3 5.9 -1.2- 86.8- 5.3 5.0---- 4.3------------
1961-03-29 3.6 5.3 -1.6- 88.5- 8.0 4.7---- 11.8-- 4---------
1961-03-30 7.3 9.1 3.7- 76.8- 6.3 4.3---- 9.9------------
1961-03-31 5.5 9.3 2.6- 90.8- 6.7 2.3---- 6.8------------
1961-04-01 8.4 11.9 0.2- 69.5- 5.7 6.7---- 3.2------------
1961-04-02 6.3 11.1 4.2- 92.5- 8.0 1.0---- 1.7------------
1961-04-03 10.0 14.6 5.8- 78.5- 7.0 2.0---- 1.8------------
1961-04-04 10.0 13.9 4.2- 81.8- 7.7 1.7---- 0.0------------
1961-04-05 13.4 21.9 5.0- 69.0- 2.0 1.0---- 0.0------------
1961-04-06 15.6 24.5 4.3- 69.5- 0.7 1.3---- 0.0------------
1961-04-07 14.6 24.9 5.0- 72.3- 0.7 1.3---- 0.0------------
1961-04-08 13.2 22.1 8.8- 74.0- 6.3 3.0---- 1.9------------
1961-04-09 4.9 10.6 2.1- 69.5- 3.0 1.3---- 0.0------------
1961-04-10 7.3 12.8 -1.7- 57.5- 3.3 2.0---- 0.0------------
1961-04-11 9.0 16.6 5.2- 71.0- 5.0 1.0---- 0.0------------
1961-04-12 7.3 15.3 1.4- 74.0- 2.3 0.7---- 0.0------------
1961-04-13 11.1 20.7 0.8- 72.5- 2.3 1.3---- 0.0------------
1961-04-14 16.6 24.6 3.2- 49.5- 1.3 1.0---- 0.0------------
1961-04-15 15.8 25.1 4.7- 59.0- 1.7 2.0---- 0.0------------
1961-04-16 15.0 24.9 7.4- 58.3- 3.0 1.7---- 0.0------------
252.3 ms

 

Źródłem pochodzenia danych jest Instytut Meteorologii i Gospodarki Wodnej – Państwowy Instytut Badawczy. Dane Instytutu Meteorologii i Gospodarki Wodnej – Państwowego Instytutu Badawczego zostały przetworzone.

Dane źródłowe można odnaleźć na stronie https://dane.imgw.pl